Time;durP1;ratioP1;P1;durP2;ratioP2;P2;SDS_P1;SDS_P2;PMS_P1;PMS_P2;Temp;Humidity;BMP_temperature;BMP_pressure;BME280_temperature;BME280_humidity;BME280_pressure;Samples;Min_cycle;Max_cycle;Signal;HPM_P1;HPM_P2
2021/06/01 04:00:50;;;;;;;8.40;7.72;;;12.00;99.90;;;;;;5712342;23;20234;-69
2021/06/01 04:03:16;;;;;;;9.52;8.50;;;12.00;99.90;;;;;;4936445;29;20210;-69
2021/06/01 04:05:42;;;;;;;8.75;7.80;;;12.00;99.90;;;;;;4936755;28;20569;-69
2021/06/01 04:08:09;;;;;;;8.40;7.70;;;12.10;99.90;;;;;;4937116;29;20229;-70
2021/06/01 04:10:35;;;;;;;8.65;7.85;;;12.20;99.90;;;;;;4936797;29;20233;-70
2021/06/01 04:13:01;;;;;;;8.25;7.53;;;12.20;99.90;;;;;;4936606;29;20678;-68
2021/06/01 04:15:27;;;;;;;8.90;8.02;;;12.30;99.90;;;;;;4936997;29;20546;-68
2021/06/01 04:17:55;;;;;;;8.82;8.05;;;12.40;99.90;;;;;;4936723;29;20626;-70
2021/06/01 04:20:21;;;;;;;8.77;7.90;;;12.50;99.90;;;;;;4935938;29;20216;-70
2021/06/01 04:22:47;;;;;;;9.65;8.68;;;12.60;99.90;;;;;;4935945;29;20217;-70
2021/06/01 04:25:14;;;;;;;9.65;8.68;;;12.60;99.90;;;;;;4936372;29;20313;-70
2021/06/01 04:27:40;;;;;;;9.50;8.57;;;12.70;99.90;;;;;;4936351;29;20221;-70
2021/06/01 04:30:08;;;;;;;9.70;8.70;;;12.70;99.90;;;;;;4936464;29;20304;-70
2021/06/01 04:32:34;;;;;;;10.20;9.20;;;12.80;99.90;;;;;;4936340;29;20290;-70
2021/06/01 04:35:02;;;;;;;10.80;8.93;;;12.80;99.90;;;;;;4935923;29;20238;-70
2021/06/01 04:37:28;;;;;;;11.43;9.07;;;12.90;99.90;;;;;;4935969;29;20233;-70
2021/06/01 04:39:56;;;;;;;9.38;8.48;;;13.00;99.90;;;;;;4936211;29;20218;-68
2021/06/01 04:42:22;;;;;;;9.63;8.80;;;13.10;99.90;;;;;;4936092;29;20234;-68
2021/06/01 04:44:49;;;;;;;10.48;9.20;;;13.30;99.90;;;;;;4936240;29;20237;-68
2021/06/01 04:47:15;;;;;;;9.05;8.25;;;13.40;99.90;;;;;;4936451;29;20220;-68
2021/06/01 04:49:42;;;;;;;9.20;8.40;;;13.50;99.90;;;;;;4935787;29;20217;-68
2021/06/01 04:52:09;;;;;;;10.07;9.07;;;13.50;99.90;;;;;;4935591;29;20532;-68
2021/06/01 04:54:35;;;;;;;9.23;8.50;;;13.60;99.90;;;;;;4935766;29;20498;-68
2021/06/01 04:57:02;;;;;;;9.77;8.77;;;13.70;99.90;;;;;;4936061;29;20469;-68
2021/06/01 04:59:28;;;;;;;9.70;8.70;;;14.00;99.90;;;;;;4936095;29;20470;-70
2021/06/01 05:01:54;;;;;;;9.87;9.07;;;14.30;99.90;;;;;;4935916;29;20501;-70
2021/06/01 05:04:20;;;;;;;9.80;8.80;;;14.50;99.90;;;;;;4935426;29;20490;-70
2021/06/01 05:06:47;;;;;;;9.60;8.67;;;14.70;99.90;;;;;;4935218;28;20841;-69
2021/06/01 05:09:14;;;;;;;8.90;8.17;;;14.90;99.90;;;;;;4935570;29;20465;-70
2021/06/01 05:11:40;;;;;;;9.80;8.97;;;14.90;99.90;;;;;;4935474;29;20481;-70
2021/06/01 05:14:11;;;;;;;9.50;8.70;;;14.90;99.90;;;;;;4935184;29;20462;-67
2021/06/01 05:16:37;;;;;;;8.70;8.00;;;14.80;99.90;;;;;;4935482;29;20868;-70
2021/06/01 05:19:03;;;;;;;10.37;9.43;;;14.80;99.90;;;;;;4934941;29;20461;-68
2021/06/01 05:21:30;;;;;;;9.90;9.10;;;14.80;99.90;;;;;;4934783;29;20485;-68
2021/06/01 05:23:56;;;;;;;9.63;8.63;;;14.90;99.90;;;;;;4935352;29;20472;-68
2021/06/01 05:26:23;;;;;;;10.23;8.53;;;14.90;99.90;;;;;;4934999;29;20477;-68
2021/06/01 05:28:50;;;;;;;10.50;8.43;;;14.80;99.90;;;;;;4935386;29;20581;-68
2021/06/01 05:31:19;;;;;;;8.83;8.17;;;14.90;99.90;;;;;;4935277;29;20489;-69
2021/06/01 05:33:49;;;;;;;10.10;9.23;;;14.90;99.90;;;;;;4934628;29;20816;-69
2021/06/01 05:36:15;;;;;;;9.70;8.70;;;15.00;99.90;;;;;;4934878;29;20896;-69
2021/06/01 05:38:42;;;;;;;9.70;8.83;;;15.00;99.90;;;;;;4935413;29;20540;-69
2021/06/01 05:41:08;;;;;;;8.97;8.07;;;15.10;99.90;;;;;;4935492;29;20490;-69
2021/06/01 05:43:36;;;;;;;9.80;8.60;;;15.10;99.90;;;;;;4935437;29;20521;-69
2021/06/01 05:46:02;;;;;;;9.47;8.67;;;15.10;99.90;;;;;;4934888;29;20835;-69
2021/06/01 05:48:28;;;;;;;9.33;8.63;;;15.30;99.90;;;;;;4934628;29;20537;-70
2021/06/01 05:50:56;;;;;;;9.43;8.57;;;15.40;99.90;;;;;;4934331;29;20516;-69
2021/06/01 05:53:24;;;;;;;9.43;8.50;;;15.50;99.90;;;;;;4935225;29;20466;-69
2021/06/01 05:55:51;;;;;;;10.17;9.37;;;15.50;99.90;;;;;;4935903;29;20461;-69
2021/06/01 05:58:18;;;;;;;11.20;9.13;;;15.70;99.90;;;;;;4935871;29;20492;-69
2021/06/01 06:00:45;;;;;;;9.60;8.70;;;15.70;99.90;;;;;;4935315;29;20536;-70
2021/06/01 06:03:12;;;;;;;9.70;8.90;;;15.90;99.90;;;;;;4934717;29;20470;-71
2021/06/01 06:05:38;;;;;;;8.57;7.97;;;15.90;99.90;;;;;;4936177;28;20493;-70
2021/06/01 06:08:08;;;;;;;9.30;8.40;;;16.00;99.90;;;;;;4935843;29;20476;-70
2021/06/01 06:10:35;;;;;;;8.53;7.93;;;16.10;99.90;;;;;;4937218;29;20551;-70
2021/06/01 06:13:01;;;;;;;8.73;8.03;;;16.20;99.90;;;;;;4938299;29;20469;-70
2021/06/01 06:15:28;;;;;;;9.83;8.30;;;16.40;99.90;;;;;;4940032;29;20462;-71
2021/06/01 06:18:03;;;;;;;8.23;7.67;;;16.70;99.90;;;;;;4940320;29;20812;-71
2021/06/01 06:20:31;;;;;;;8.23;7.50;;;17.20;99.90;;;;;;4939445;29;20505;-68
2021/06/01 06:22:57;;;;;;;8.00;7.27;;;17.90;99.90;;;;;;4940015;29;20465;-68
2021/06/01 06:25:23;;;;;;;8.27;7.67;;;18.50;99.90;;;;;;4938796;29;20501;-70
2021/06/01 06:27:49;;;;;;;7.70;7.10;;;19.20;99.90;;;;;;4936737;29;20477;-68
2021/06/01 06:30:17;;;;;;;7.83;7.20;;;20.00;99.90;;;;;;4935351;29;20469;-68
2021/06/01 06:32:44;;;;;;;6.83;6.40;;;20.70;99.90;;;;;;4934672;29;20473;-68
2021/06/01 06:35:12;;;;;;;6.93;6.53;;;21.30;99.90;;;;;;4934604;29;20464;-68
2021/06/01 06:37:39;;;;;;;7.20;6.60;;;21.90;99.90;;;;;;4934538;29;20949;-69
2021/06/01 06:40:09;;;;;;;5.77;5.57;;;22.50;99.90;;;;;;4935213;29;20473;-69
2021/06/01 06:42:36;;;;;;;6.07;5.67;;;23.00;99.90;;;;;;4935021;29;20902;-68
2021/06/01 06:45:02;;;;;;;6.60;6.20;;;23.70;99.90;;;;;;4934581;29;20841;-69
2021/06/01 06:47:41;;;;;;;6.57;6.17;;;24.30;99.90;;;;;;4934745;29;20466;-68
2021/06/01 06:50:08;;;;;;;5.97;5.60;;;24.70;99.90;;;;;;4934237;29;20478;-68
2021/06/01 06:52:36;;;;;;;6.87;6.30;;;24.70;99.90;;;;;;4934143;29;20475;-69
2021/06/01 06:55:03;;;;;;;5.10;4.90;;;24.50;99.10;;;;;;4934570;29;20490;-68
2021/06/01 06:57:29;;;;;;;5.87;5.40;;;24.10;99.70;;;;;;4934509;29;20463;-69
2021/06/01 06:59:55;;;;;;;5.77;5.50;;;24.20;99.90;;;;;;4934758;29;20543;-68
2021/06/01 07:02:24;;;;;;;5.70;5.50;;;24.50;99.90;;;;;;4936917;29;20503;-68
2021/06/01 07:04:50;;;;;;;5.83;5.53;;;24.80;99.10;;;;;;4938319;29;20809;-69
2021/06/01 07:07:16;;;;;;;5.40;5.17;;;25.00;98.90;;;;;;4938335;29;20483;-69
2021/06/01 07:09:44;;;;;;;5.23;4.93;;;24.80;96.70;;;;;;4938217;29;20577;-69
2021/06/01 07:12:12;;;;;;;5.80;5.60;;;24.50;96.10;;;;;;4937741;29;20981;-69
2021/06/01 07:14:50;;;;;;;5.30;5.00;;;24.10;96.00;;;;;;4938227;29;20836;-69
2021/06/01 07:17:16;;;;;;;5.37;5.03;;;23.90;95.90;;;;;;4937912;29;20527;-67
2021/06/01 07:19:44;;;;;;;5.90;5.60;;;23.70;96.50;;;;;;4937755;29;20474;-67
2021/06/01 07:22:11;;;;;;;5.07;4.87;;;23.90;95.90;;;;;;4937229;29;20521;-67
2021/06/01 07:24:37;;;;;;;5.63;5.20;;;23.80;95.70;;;;;;4937686;29;20497;-67
2021/06/01 07:27:05;;;;;;;5.77;5.40;;;23.60;96.00;;;;;;4938242;29;20468;-67
2021/06/01 07:29:31;;;;;;;5.63;5.23;;;23.40;96.70;;;;;;4937784;29;20471;-67
2021/06/01 07:31:58;;;;;;;5.97;5.47;;;23.20;97.10;;;;;;4937324;29;20490;-68
2021/06/01 07:34:24;;;;;;;6.20;5.80;;;23.10;97.70;;;;;;4937178;29;20469;-67
2021/06/01 07:36:50;;;;;;;6.53;6.03;;;23.10;97.40;;;;;;4937073;29;20524;-68
2021/06/01 07:39:16;;;;;;;6.67;6.17;;;23.00;97.70;;;;;;4937601;29;20819;-67
2021/06/01 07:41:43;;;;;;;6.07;5.77;;;22.80;98.70;;;;;;4937760;29;20589;-67
2021/06/01 07:44:10;;;;;;;6.00;5.70;;;22.80;98.70;;;;;;4937294;29;20465;-67
2021/06/01 07:46:36;;;;;;;5.80;5.43;;;22.90;98.90;;;;;;4937667;29;20801;-67
2021/06/01 07:49:03;;;;;;;5.00;4.80;;;23.10;97.70;;;;;;4937066;29;20470;-69
2021/06/01 07:51:29;;;;;;;5.57;5.27;;;23.40;96.70;;;;;;4936804;29;20605;-69
2021/06/01 07:53:56;;;;;;;5.27;5.00;;;23.60;96.70;;;;;;4937299;29;20573;-70
2021/06/01 07:56:23;;;;;;;4.10;4.00;;;23.90;96.20;;;;;;4937230;29;20473;-69
2021/06/01 07:58:49;;;;;;;4.70;4.53;;;24.10;91.00;;;;;;4937197;29;20473;-69
2021/06/01 08:01:17;;;;;;;4.40;4.20;;;23.90;92.40;;;;;;4937125;29;20570;-69
2021/06/01 08:03:44;;;;;;;4.10;4.00;;;23.90;92.20;;;;;;4936645;29;20472;-69
2021/06/01 08:06:10;;;;;;;4.27;4.13;;;23.80;92.00;;;;;;4936494;28;20562;-69
2021/06/01 08:08:37;;;;;;;4.30;4.10;;;23.90;91.90;;;;;;4937213;29;20471;-69
2021/06/01 08:11:03;;;;;;;4.30;4.20;;;23.90;90.60;;;;;;4936858;29;20781;-69
2021/06/01 08:13:29;;;;;;;3.90;3.80;;;23.60;87.00;;;;;;4936322;29;20485;-69
2021/06/01 08:15:56;;;;;;;3.80;3.70;;;23.40;91.00;;;;;;4937230;29;20959;-68
2021/06/01 08:18:26;;;;;;;3.53;3.33;;;23.40;90.50;;;;;;4936657;29;20473;-68
2021/06/01 08:20:58;;;;;;;4.20;4.00;;;23.60;84.50;;;;;;4936665;29;20586;-68
2021/06/01 08:23:24;;;;;;;3.27;3.17;;;23.90;82.40;;;;;;4936951;29;20562;-68
2021/06/01 08:25:51;;;;;;;3.90;3.70;;;24.00;76.50;;;;;;4936914;29;20803;-68
2021/06/01 08:28:17;;;;;;;3.70;3.50;;;23.90;79.50;;;;;;4936974;29;20482;-68
2021/06/01 08:30:43;;;;;;;3.70;3.60;;;24.00;81.70;;;;;;4936903;29;20491;-68
2021/06/01 08:33:10;;;;;;;4.30;4.10;;;23.90;78.30;;;;;;4936282;29;20462;-70
2021/06/01 08:35:37;;;;;;;3.60;3.50;;;23.80;80.50;;;;;;4936550;29;20529;-69
2021/06/01 08:38:04;;;;;;;3.67;3.50;;;24.00;82.50;;;;;;4936679;29;20468;-68
2021/06/01 08:40:30;;;;;;;3.80;3.70;;;24.10;78.00;;;;;;4937069;29;20495;-68
2021/06/01 08:42:56;;;;;;;3.23;3.03;;;23.90;79.80;;;;;;4936366;29;20470;-68
2021/06/01 08:45:23;;;;;;;4.50;4.17;;;23.60;78.20;;;;;;4936443;29;20486;-68
2021/06/01 08:47:49;;;;;;;3.87;3.77;;;23.50;80.00;;;;;;4936480;29;20550;-69
2021/06/01 08:50:16;;;;;;;3.27;3.27;;;23.40;79.50;;;;;;4936080;29;20557;-71
2021/06/01 08:52:43;;;;;;;4.00;3.80;;;23.30;80.30;;;;;;4935908;29;20465;-71
2021/06/01 08:55:12;;;;;;;3.50;3.30;;;23.20;79.10;;;;;;4936373;29;20565;-70
2021/06/01 08:57:39;;;;;;;3.50;3.40;;;23.10;79.50;;;;;;4936183;29;20880;-70
2021/06/01 09:00:09;;;;;;;3.47;3.27;;;23.10;81.40;;;;;;4936139;29;20521;-70
2021/06/01 09:02:37;;;;;;;3.50;3.30;;;23.00;79.50;;;;;;4935712;29;20477;-71
2021/06/01 09:05:06;;;;;;;3.07;3.07;;;22.90;79.00;;;;;;4935765;29;20485;-70
2021/06/01 09:07:40;;;;;;;3.57;3.27;;;22.80;80.00;;;;;;4935428;29;20835;-68
2021/06/01 09:10:22;;;;;;;3.73;3.63;;;22.80;78.90;;;;;;4935793;29;20537;-68
2021/06/01 09:13:11;;;;;;;3.50;3.40;;;22.90;79.70;;;;;;4936079;29;20669;-68
2021/06/01 09:19:45;;;;;;;3.80;3.60;;;23.10;78.90;;;;;;4935796;29;20468;-68
2021/06/01 09:21:30;;;;;;;3.70;3.60;;;23.30;76.60;;;;;;4913797;29;20985;-68
2021/06/01 09:24:00;;;;;;;3.20;3.10;;;23.40;78.40;;;;;;4929608;29;20963;-69
2021/06/01 09:27:04;;;;;;;3.43;3.23;;;23.20;76.80;;;;;;4935724;29;20489;-69
2021/06/01 09:29:32;;;;;;;3.40;3.30;;;23.20;76.90;;;;;;4895559;29;20463;-69
2021/06/01 09:32:10;;;;;;;3.20;3.10;;;23.10;76.20;;;;;;4928350;29;21009;-69
2021/06/01 09:34:42;;;;;;;3.70;3.50;;;23.20;77.20;;;;;;4935502;29;20907;-70
2021/06/01 09:37:20;;;;;;;3.53;3.30;;;23.00;76.10;;;;;;4935204;29;20555;-71
2021/06/01 09:40:04;;;;;;;3.60;3.50;;;23.10;75.50;;;;;;4936293;29;20571;-71
2021/06/01 09:42:34;;;;;;;3.60;3.37;;;23.10;77.40;;;;;;4938403;29;20484;-70
2021/06/01 09:45:06;;;;;;;3.60;3.50;;;23.20;77.90;;;;;;4938561;29;20494;-70
2021/06/01 09:47:43;;;;;;;3.90;3.70;;;23.10;76.20;;;;;;4937529;29;20899;-69
2021/06/01 09:50:15;;;;;;;4.00;3.80;;;23.00;76.50;;;;;;4937113;29;20469;-68
2021/06/01 09:52:46;;;;;;;3.60;3.40;;;22.90;77.70;;;;;;4937574;29;20549;-71
2021/06/01 09:55:22;;;;;;;3.43;3.40;;;22.90;77.10;;;;;;4937903;29;20469;-72
2021/06/01 09:57:50;;;;;;;3.43;3.33;;;23.00;76.00;;;;;;4937239;29;20541;-71
2021/06/01 10:00:18;;;;;;;4.67;4.47;;;23.00;76.10;;;;;;4934875;29;20469;-71
2021/06/01 10:02:46;;;;;;;3.83;3.53;;;23.00;76.70;;;;;;4934845;29;20466;-70
2021/06/01 10:05:17;;;;;;;3.60;3.40;;;23.10;76.30;;;;;;4934717;29;20802;-69
2021/06/01 10:07:43;;;;;;;4.03;3.70;;;23.10;76.40;;;;;;4934356;29;20975;-69
2021/06/01 10:10:15;;;;;;;3.53;3.43;;;23.10;77.50;;;;;;4934891;29;20466;-69
2021/06/01 10:12:43;;;;;;;4.47;4.07;;;23.10;77.80;;;;;;4934908;29;20466;-69
2021/06/01 10:15:13;;;;;;;4.30;4.00;;;22.90;77.10;;;;;;4935053;29;20462;-70
2021/06/01 10:17:40;;;;;;;3.33;3.23;;;22.80;76.80;;;;;;4934889;29;20536;-69
2021/06/01 10:20:07;;;;;;;4.67;4.47;;;22.90;79.30;;;;;;4934584;29;20533;-69
2021/06/01 10:22:34;;;;;;;4.60;4.10;;;22.90;79.60;;;;;;4934466;29;20517;-70
2021/06/01 10:25:01;;;;;;;3.90;3.80;;;22.90;80.90;;;;;;4934648;29;20901;-70
2021/06/01 10:27:27;;;;;;;4.70;4.50;;;23.10;80.20;;;;;;4934684;29;20492;-70
2021/06/01 10:29:54;;;;;;;3.97;3.87;;;23.20;81.10;;;;;;4934672;29;20831;-70
2021/06/01 10:32:23;;;;;;;4.67;4.37;;;23.10;79.40;;;;;;4934682;29;20489;-70
2021/06/01 10:34:52;;;;;;;4.67;4.23;;;23.10;80.60;;;;;;4934465;29;20462;-68
2021/06/01 10:43:22;;;;;;;4.60;4.23;;;23.30;81.30;;;;;;4938422;29;20535;-69
2021/06/01 10:49:19;;;;;;;4.30;4.20;;;23.40;81.90;;;;;;4938012;29;20848;-69
2021/06/01 10:52:07;;;;;;;5.00;4.70;;;23.20;83.20;;;;;;4937723;29;20507;-69
2021/06/01 10:55:07;;;;;;;4.70;4.40;;;23.30;84.20;;;;;;4938195;29;20472;-69
2021/06/01 10:57:54;;;;;;;4.40;4.20;;;23.40;84.30;;;;;;4898175;29;20466;-68
2021/06/01 11:03:06;;;;;;;6.10;5.70;;;23.40;84.40;;;;;;4938006;29;20480;-69
2021/06/01 11:06:08;;;;;;;4.57;4.27;;;23.50;83.70;;;;;;4938098;29;21000;-69
2021/06/01 11:08:42;;;;;;;4.03;3.83;;;23.40;84.60;;;;;;4938513;29;20461;-69
2021/06/01 11:11:31;;;;;;;5.00;4.50;;;23.30;84.20;;;;;;4938062;29;21013;-69
2021/06/01 11:13:59;;;;;;;7.30;5.30;;;23.30;83.90;;;;;;4937905;29;20463;-68
2021/06/01 11:16:25;;;;;;;4.17;3.97;;;23.30;82.00;;;;;;4938220;29;20485;-68
2021/06/01 11:18:56;;;;;;;4.20;3.90;;;23.40;82.20;;;;;;4937591;29;20977;-69
2021/06/01 11:21:30;;;;;;;5.13;4.73;;;23.40;82.50;;;;;;4937545;29;20481;-70
2021/06/01 11:33:21;;;;;;;4.73;4.53;;;23.50;82.80;;;;;;4937566;29;20445;-67
2021/06/01 11:35:56;;;;;;;5.50;4.70;;;23.70;82.90;;;;;;4937242;29;20457;-68
2021/06/01 11:38:29;;;;;;;4.40;4.20;;;23.90;82.00;;;;;;4937455;29;20547;-68
2021/06/01 11:41:06;;;;;;;4.23;4.03;;;23.80;79.50;;;;;;4937372;29;20563;-68
2021/06/01 11:43:32;;;;;;;3.87;3.67;;;23.80;80.40;;;;;;4937212;29;20468;-68
2021/06/01 11:46:11;;;;;;;3.80;3.60;;;23.80;79.80;;;;;;4937602;29;20496;-68
2021/06/01 11:51:32;;;;;;;4.40;4.03;;;23.90;79.70;;;;;;4936994;29;20505;-68
2021/06/01 11:54:02;;;;;;;4.40;4.20;;;24.10;78.10;;;;;;4937236;29;20466;-68
2021/06/01 11:56:35;;;;;;;5.07;4.60;;;24.10;79.00;;;;;;4937407;29;20560;-68
2021/06/01 12:04:57;;;;;;;4.50;4.30;;;24.10;79.10;;;;;;4937004;29;20806;-69
2021/06/01 12:18:36;;;;;;;5.17;4.87;;;24.40;79.00;;;;;;4937844;29;20860;-69
2021/06/01 12:21:04;;;;;;;5.20;4.90;;;24.60;78.30;;;;;;4945954;29;20574;-70
2021/06/01 12:23:33;;;;;;;4.57;4.47;;;24.70;78.30;;;;;;4937428;29;20465;-70
2021/06/01 12:26:07;;;;;;;5.20;4.80;;;24.80;79.90;;;;;;4938065;29;20497;-70
2021/06/01 12:31:24;;;;;;;6.10;5.50;;;25.00;77.50;;;;;;4941605;29;20505;-70
2021/06/01 12:33:58;;;;;;;5.23;4.93;;;25.10;78.50;;;;;;4942698;29;20466;-70
2021/06/01 12:42:32;;;;;;;4.80;4.50;;;24.90;78.20;;;;;;4915323;29;20473;-68
2021/06/01 12:44:58;;;;;;;5.50;5.20;;;25.10;79.20;;;;;;4932773;29;20521;-69
2021/06/01 13:05:16;;;;;;;6.20;4.43;;;25.20;78.70;;;;;;4937589;29;20489;-69
2021/06/01 13:12:03;;;;;;;4.77;4.47;;;24.70;78.20;;;;;;4935991;29;20496;-67
2021/06/01 13:12:58;;;;;;;4.70;4.40;;;24.80;79.60;;;;;;4935486;29;20457;-67
2021/06/01 13:21:03;;;;;;;4.10;3.90;;;25.10;74.60;;;;;;4935583;29;20485;-68
2021/06/01 13:24:02;;;;;;;4.50;4.30;;;25.30;74.70;;;;;;4935691;29;20469;-68
2021/06/01 13:38:10;;;;;;;3.73;3.60;;;25.10;69.20;;;;;;4935226;29;20453;-68
2021/06/01 13:40:45;;;;;;;3.80;3.60;;;25.10;69.30;;;;;;4935523;29;20489;-69
2021/06/01 13:46:14;;;;;;;3.60;3.50;;;24.90;73.50;;;;;;4935385;29;20484;-68
2021/06/01 13:49:01;;;;;;;5.63;4.83;;;25.00;73.20;;;;;;4935372;29;20555;-68
2021/06/01 13:51:43;;;;;;;3.90;3.60;;;25.10;72.30;;;;;;4935254;29;20489;-69
2021/06/01 13:57:00;;;;;;;4.80;4.50;;;25.50;73.20;;;;;;4937081;29;20479;-69
2021/06/01 13:59:38;;;;;;;3.80;3.70;;;25.60;72.20;;;;;;4944567;29;20469;-69
2021/06/01 14:02:26;;;;;;;3.97;3.77;;;25.70;72.10;;;;;;4943518;29;20493;-70
2021/06/01 14:10:47;;;;;;;4.30;4.10;;;25.70;70.70;;;;;;4945034;29;20476;-69
2021/06/01 14:21:46;;;;;;;4.37;4.17;;;25.50;71.30;;;;;;4941245;29;20472;-70
2021/06/01 14:30:01;;;;;;;4.03;3.83;;;25.50;73.00;;;;;;4943689;29;20456;-70
2021/06/01 14:55:05;;;;;;;3.20;3.10;;;24.70;71.80;;;;;;4934458;29;20571;-69
2021/06/01 15:11:35;;;;;;;3.23;2.60;;;23.60;72.50;;;;;;4933313;29;20477;-69
2021/06/01 15:49:51;;;;;;;1.70;1.70;;;23.00;57.20;;;;;;4937300;29;20511;-70
2021/06/01 15:55:34;;;;;;;2.00;2.00;;;22.80;57.00;;;;;;4937752;29;20461;-69
2021/06/01 16:12:14;;;;;;;1.40;1.40;;;22.60;55.70;;;;;;4937107;29;20517;-70
2021/06/01 16:14:55;;;;;;;1.33;1.33;;;22.60;55.10;;;;;;4937622;29;20525;-70
2021/06/01 16:22:58;;;;;;;1.50;1.50;;;22.20;53.30;;;;;;4936472;29;20457;-70
2021/06/01 16:42:07;;;;;;;2.60;1.40;;;22.20;53.20;;;;;;4936591;29;20996;-69
2021/06/01 17:04:11;;;;;;;1.27;0.80;;;21.70;39.90;;;;;;4935845;29;20477;-70
2021/06/01 17:06:48;;;;;;;0.90;0.90;;;21.70;39.40;;;;;;4935855;28;20599;-69
2021/06/01 17:12:04;;;;;;;2.33;1.00;;;21.60;39.10;;;;;;4935775;29;20489;-70
2021/06/01 17:14:30;;;;;;;0.83;0.83;;;21.50;39.00;;;;;;4936259;29;20540;-69
2021/06/01 17:17:00;;;;;;;0.93;0.93;;;21.60;39.90;;;;;;4935948;29;20898;-68
2021/06/01 17:30:53;;;;;;;1.20;1.10;;;21.50;40.90;;;;;;4935723;29;20472;-69
2021/06/01 17:36:07;;;;;;;0.77;0.77;;;21.40;42.30;;;;;;4935179;29;20503;-69
2021/06/01 17:38:35;;;;;;;0.90;0.90;;;21.30;43.00;;;;;;4935596;29;20560;-69
2021/06/01 17:41:03;;;;;;;0.83;0.83;;;21.20;44.00;;;;;;4935313;29;20685;-70
2021/06/01 17:43:31;;;;;;;0.70;0.70;;;21.10;45.30;;;;;;4935272;29;20521;-69
2021/06/01 17:45:58;;;;;;;1.60;1.50;;;21.00;46.40;;;;;;4934312;29;20552;-70
2021/06/01 17:48:31;;;;;;;1.00;1.00;;;20.90;46.90;;;;;;4935096;29;20465;-69
2021/06/01 17:50:59;;;;;;;1.00;1.00;;;20.80;47.90;;;;;;4934428;29;20791;-69
2021/06/01 17:53:26;;;;;;;1.30;0.77;;;20.80;48.60;;;;;;4935206;29;21041;-69
2021/06/01 17:55:54;;;;;;;1.33;0.73;;;20.70;49.10;;;;;;4934951;29;20465;-69
2021/06/01 17:58:23;;;;;;;0.80;0.80;;;20.70;50.80;;;;;;4935150;29;20928;-70
2021/06/01 18:00:49;;;;;;;1.40;1.40;;;20.60;51.80;;;;;;4935094;29;20497;-69
2021/06/01 18:03:18;;;;;;;1.27;1.17;;;20.60;52.90;;;;;;4934830;29;20469;-70
2021/06/01 18:05:47;;;;;;;1.47;1.47;;;20.60;53.90;;;;;;4934818;28;20770;-70
2021/06/01 18:08:18;;;;;;;1.10;1.10;;;20.50;54.70;;;;;;4935243;29;20489;-69
2021/06/01 19:01:19;;;;;;;1.50;1.50;;;18.60;72.60;;;;;;4938452;29;20558;-69
2021/06/01 19:26:25;;;;;;;2.27;2.07;;;18.20;77.50;;;;;;4938076;29;20555;-69
2021/06/01 19:29:18;;;;;;;1.83;1.83;;;18.10;78.80;;;;;;4937819;29;20528;-70
2021/06/01 19:51:26;;;;;;;3.33;2.60;;;17.70;89.60;;;;;;4936952;29;20513;-71
2021/06/01 19:53:54;;;;;;;3.17;2.97;;;17.70;90.30;;;;;;4937617;29;20469;-71
2021/06/01 19:56:20;;;;;;;3.17;3.07;;;17.70;90.90;;;;;;4937697;29;20469;-71
2021/06/01 19:58:48;;;;;;;3.10;3.00;;;17.60;91.50;;;;;;4937401;29;20470;-71
2021/06/01 20:01:15;;;;;;;2.73;2.60;;;17.60;92.20;;;;;;4937345;29;20501;-71
2021/06/01 20:03:42;;;;;;;3.63;3.33;;;17.50;92.80;;;;;;4936943;29;20472;-71
2021/06/01 20:06:10;;;;;;;3.33;3.13;;;17.50;93.60;;;;;;4936930;29;20506;-71
2021/06/01 20:08:36;;;;;;;3.33;3.13;;;17.50;94.30;;;;;;4936691;29;20477;-71
2021/06/01 20:11:04;;;;;;;3.20;3.10;;;17.40;95.50;;;;;;4937192;29;20838;-71
2021/06/01 20:13:31;;;;;;;3.40;3.30;;;17.40;96.50;;;;;;4937128;29;20833;-71
2021/06/01 20:15:57;;;;;;;3.00;2.90;;;17.40;98.10;;;;;;4937292;29;20468;-71
2021/06/01 20:18:28;;;;;;;3.70;3.50;;;17.40;98.40;;;;;;4936688;29;20465;-71
2021/06/01 20:20:56;;;;;;;3.83;3.67;;;17.40;99.20;;;;;;4936646;29;21037;-71
2021/06/01 20:23:24;;;;;;;4.03;3.77;;;17.30;99.90;;;;;;4936682;29;20466;-71
2021/06/01 20:25:52;;;;;;;4.10;3.70;;;17.30;99.90;;;;;;4936598;29;20500;-71
2021/06/01 20:28:26;;;;;;;4.00;3.70;;;17.30;99.90;;;;;;4936846;29;20949;-71
2021/06/01 20:31:00;;;;;;;4.87;4.00;;;17.30;99.90;;;;;;4936721;29;20492;-71
2021/06/01 20:33:28;;;;;;;4.57;4.27;;;17.20;99.90;;;;;;4936397;29;20492;-71
2021/06/01 20:35:54;;;;;;;4.53;4.13;;;17.20;99.90;;;;;;4936304;29;20921;-72
2021/06/01 20:38:23;;;;;;;4.33;4.03;;;17.20;99.90;;;;;;4936819;29;20492;-71
2021/06/01 20:40:50;;;;;;;4.97;4.43;;;17.20;99.90;;;;;;4936365;29;20493;-71
2021/06/01 20:43:17;;;;;;;4.80;4.50;;;17.20;99.90;;;;;;4936469;29;20950;-71
2021/06/01 20:45:46;;;;;;;4.13;3.93;;;17.20;99.90;;;;;;4936351;29;20493;-70
2021/06/01 20:48:16;;;;;;;6.17;5.60;;;17.20;99.90;;;;;;4936350;29;20561;-70
2021/06/01 20:50:43;;;;;;;4.87;4.47;;;17.10;99.90;;;;;;4935954;29;20574;-70
2021/06/01 20:53:10;;;;;;;5.20;4.80;;;17.10;99.90;;;;;;4936463;29;20489;-72
2021/06/01 20:55:37;;;;;;;4.97;4.57;;;17.00;99.90;;;;;;4936598;29;20465;-70
2021/06/01 20:58:08;;;;;;;5.50;5.00;;;17.00;99.90;;;;;;4936509;29;20472;-70
